createdAt,value
2023-05-20T00:00:19.101Z,63.64
2023-05-20T00:02:47.157Z,63.65
2023-05-20T00:05:14.602Z,63.63
2023-05-20T00:07:42.066Z,63.88
2023-05-20T00:10:10.406Z,63.84
2023-05-20T00:12:41.239Z,63.69
2023-05-20T00:15:08.974Z,63.87
2023-05-20T00:17:36.671Z,63.81
2023-05-20T00:20:05.574Z,63.94
2023-05-20T00:22:32.918Z,63.15
2023-05-20T00:25:02.396Z,63.23
2023-05-20T00:27:29.724Z,64.16
2023-05-20T00:30:03.372Z,63.11
2023-05-20T00:32:31.140Z,63.57
2023-05-20T00:34:59.429Z,63.67
2023-05-20T00:37:27.454Z,63.97
2023-05-20T00:39:55.283Z,63.69
2023-05-20T00:42:26.951Z,63.70
2023-05-20T00:44:55.340Z,63.50
2023-05-20T00:47:24.365Z,63.43
2023-05-20T00:49:52.045Z,63.20
2023-05-20T00:52:19.851Z,63.27
2023-05-20T00:54:47.223Z,63.61
2023-05-20T00:57:14.841Z,63.33
2023-05-20T00:59:44.755Z,63.25
2023-05-20T01:02:14.467Z,63.15
2023-05-20T01:04:46.716Z,63.28
2023-05-20T01:07:15.535Z,63.73
2023-05-20T01:09:43.136Z,63.62
2023-05-20T01:12:29.996Z,63.64
2023-05-20T01:15:00.685Z,62.71
2023-05-20T01:17:33.211Z,63.31
2023-05-20T01:20:02.697Z,64.29
2023-05-20T01:22:31.636Z,63.67
2023-05-20T01:24:59.010Z,63.60
2023-05-20T01:27:27.007Z,63.37
2023-05-20T01:29:54.571Z,63.04
2023-05-20T01:32:27.154Z,63.21
2023-05-20T01:34:55.286Z,64.07
2023-05-20T01:37:22.552Z,63.86
2023-05-20T01:39:50.170Z,64.16
2023-05-20T01:42:18.905Z,64.09
2023-05-20T01:44:46.473Z,64.12
2023-05-20T01:47:14.290Z,64.60
2023-05-20T01:49:42.454Z,63.67
2023-05-20T01:52:12.304Z,64.00
2023-05-20T01:54:40.546Z,64.36
2023-05-20T01:57:08.975Z,64.29
2023-05-20T01:59:36.374Z,63.73
2023-05-20T02:02:04.626Z,64.18
2023-05-20T02:04:32.303Z,66.00
2023-05-20T02:07:00.771Z,65.45
2023-05-20T02:09:28.891Z,65.49
2023-05-20T02:11:57.158Z,65.30
2023-05-20T02:14:24.900Z,65.65
2023-05-20T02:16:52.529Z,65.50
2023-05-20T02:19:24.016Z,65.61
2023-05-20T02:21:52.210Z,65.03
2023-05-20T02:24:21.301Z,65.53
2023-05-20T02:26:51.288Z,65.30
2023-05-20T02:29:22.130Z,65.94
2023-05-20T02:31:50.317Z,66.12
2023-05-20T02:34:18.110Z,67.31
2023-05-20T02:36:46.107Z,67.76
2023-05-20T02:39:13.492Z,67.23
2023-05-20T02:41:40.966Z,67.94
2023-05-20T02:44:09.988Z,68.67
2023-05-20T02:46:37.399Z,68.10
2023-05-20T02:49:05.661Z,68.54
2023-05-20T02:51:34.044Z,68.57
2023-05-20T02:54:01.541Z,68.20
2023-05-20T02:56:30.359Z,67.47
2023-05-20T02:58:57.996Z,66.85
2023-05-20T03:01:25.969Z,66.97
2023-05-20T03:03:53.666Z,66.26
2023-05-20T03:06:22.639Z,66.04
2023-05-20T03:08:51.735Z,65.08
2023-05-20T03:11:20.161Z,64.92
2023-05-20T03:13:48.995Z,64.26
2023-05-20T03:16:16.966Z,64.52
2023-05-20T03:18:46.445Z,63.89
2023-05-20T03:21:14.476Z,63.91
2023-05-20T03:23:42.198Z,64.14
2023-05-20T03:26:09.635Z,64.37
2023-05-20T03:28:37.612Z,65.40
2023-05-20T03:31:06.849Z,64.01
2023-05-20T03:33:35.104Z,64.80
2023-05-20T03:36:04.202Z,63.84
2023-05-20T03:38:35.279Z,63.84
2023-05-20T03:41:05.472Z,63.70
2023-05-20T03:43:45.123Z,62.85
2023-05-20T03:46:13.414Z,62.25
2023-05-20T03:48:41.300Z,62.63
2023-05-20T03:51:08.750Z,62.70
2023-05-20T03:53:40.442Z,62.51
2023-05-20T03:56:08.317Z,61.83
2023-05-20T03:58:38.809Z,60.87
2023-05-20T04:01:07.413Z,62.59
2023-05-20T04:03:35.447Z,62.08
2023-05-20T04:06:04.412Z,61.23
2023-05-20T04:08:32.239Z,61.46
2023-05-20T04:11:00.231Z,61.22
2023-05-20T04:13:29.025Z,60.44
2023-05-20T04:15:58.717Z,61.46
2023-05-20T04:18:29.936Z,61.70
2023-05-20T04:20:57.393Z,60.97
2023-05-20T04:23:24.827Z,59.75
2023-05-20T04:25:52.908Z,60.23
2023-05-20T04:31:00.322Z,60.89
2023-05-20T04:33:28.113Z,59.14
2023-05-20T04:36:01.154Z,58.49
2023-05-20T04:38:30.681Z,58.87
2023-05-20T04:41:00.366Z,58.47
2023-05-20T04:43:31.369Z,57.41
2023-05-20T04:46:01.491Z,55.89
2023-05-20T04:48:49.878Z,57.12
2023-05-20T04:51:18.066Z,57.51
2023-05-20T04:53:47.147Z,57.18
2023-05-20T04:56:17.176Z,57.10
2023-05-20T04:58:53.071Z,56.82
2023-05-20T05:01:21.551Z,56.91
2023-05-20T05:03:51.092Z,57.41
2023-05-20T05:06:19.212Z,57.35
2023-05-20T05:08:47.385Z,56.00
2023-05-20T05:11:21.750Z,55.87
2023-05-20T05:13:49.617Z,55.68
2023-05-20T05:16:19.102Z,55.12
2023-05-20T05:18:47.471Z,56.46
2023-05-20T05:23:53.089Z,55.45
2023-05-20T05:26:21.168Z,54.97
2023-05-20T05:32:40.607Z,55.08
2023-05-20T05:35:09.105Z,54.71
2023-05-20T05:37:42.156Z,54.51
2023-05-20T05:40:13.332Z,55.02
2023-05-20T05:42:42.232Z,55.31
2023-05-20T05:45:12.261Z,54.83
2023-05-20T05:47:46.388Z,53.63
2023-05-20T05:50:14.908Z,53.12
2023-05-20T05:52:44.416Z,51.74
2023-05-20T05:55:13.252Z,52.52
2023-05-20T05:57:45.499Z,52.29
2023-05-20T06:00:26.181Z,51.93
2023-05-20T06:02:56.505Z,52.03
2023-05-20T06:05:26.918Z,51.81
2023-05-20T06:07:56.907Z,51.79
2023-05-20T06:10:26.153Z,51.96
2023-05-20T06:16:10.914Z,50.69
2023-05-20T06:18:38.557Z,51.19
2023-05-20T06:21:07.377Z,49.86
2023-05-20T06:23:45.322Z,52.08
2023-05-20T06:26:15.019Z,50.48
2023-05-20T06:29:07.220Z,50.83
2023-05-20T06:31:37.244Z,50.01
2023-05-20T06:34:13.254Z,49.54
2023-05-20T06:36:44.481Z,49.68
2023-05-20T06:39:17.082Z,50.82
2023-05-20T06:42:06.116Z,50.02
2023-05-20T06:45:13.144Z,50.22
2023-05-20T06:48:17.099Z,48.48
2023-05-20T06:50:52.264Z,48.93
2023-05-20T06:53:35.580Z,48.26
2023-05-20T06:56:33.593Z,47.54
2023-05-20T06:59:14.215Z,47.24
2023-05-20T07:02:24.378Z,47.57
2023-05-20T07:05:04.636Z,46.70
2023-05-20T07:07:45.178Z,46.52
2023-05-20T07:10:38.364Z,46.36
2023-05-20T07:13:44.542Z,46.52
2023-05-20T07:16:42.072Z,47.05
2023-05-20T07:19:36.957Z,45.75
2023-05-20T07:22:16.816Z,46.36
2023-05-20T07:25:08.386Z,45.02
2023-05-20T07:27:46.374Z,44.41
2023-05-20T07:30:18.372Z,45.75
2023-05-20T07:32:48.053Z,45.76
2023-05-20T07:35:39.185Z,45.10
2023-05-20T07:39:01.001Z,46.43
2023-05-20T07:41:33.073Z,46.08
2023-05-20T07:44:26.850Z,44.24
2023-05-20T07:47:42.361Z,45.18
2023-05-20T07:50:14.391Z,44.42
2023-05-20T07:52:56.080Z,45.97
2023-05-20T07:55:27.250Z,41.83
2023-05-20T07:57:58.294Z,44.48
2023-05-20T08:00:30.194Z,43.36
2023-05-20T08:03:08.613Z,43.38
2023-05-20T08:06:04.542Z,44.15
2023-05-20T08:08:58.203Z,43.69
2023-05-20T08:11:28.067Z,43.98
2023-05-20T08:14:32.354Z,42.73
2023-05-20T08:17:17.270Z,42.60
2023-05-20T08:20:09.131Z,43.74
2023-05-20T08:23:01.114Z,43.10
2023-05-20T08:25:53.100Z,43.13
2023-05-20T08:28:33.561Z,43.16
2023-05-20T08:31:14.962Z,42.11
2023-05-20T08:33:58.901Z,43.59
2023-05-20T08:36:28.155Z,42.34
2023-05-20T08:39:16.733Z,42.51
2023-05-20T08:42:26.164Z,42.38
2023-05-20T08:45:15.280Z,42.05
2023-05-20T08:48:46.141Z,42.28
2023-05-20T08:51:15.922Z,41.22
2023-05-20T08:54:13.315Z,42.82
2023-05-20T08:57:00.740Z,40.89
2023-05-20T08:59:33.939Z,41.83
2023-05-20T09:02:04.504Z,41.21
2023-05-20T09:04:36.193Z,41.58
2023-05-20T09:07:19.270Z,40.92
2023-05-20T09:09:49.159Z,40.47
2023-05-20T09:12:20.458Z,41.07
2023-05-20T09:14:48.640Z,41.75
2023-05-20T09:17:24.276Z,42.84
2023-05-20T09:19:55.218Z,42.58
2023-05-20T09:22:28.193Z,41.22
2023-05-20T09:24:58.964Z,41.09
2023-05-20T09:27:31.211Z,39.84
2023-05-20T09:30:00.216Z,39.54
2023-05-20T09:32:29.864Z,42.26
2023-05-20T09:35:01.508Z,41.77
2023-05-20T09:37:31.364Z,39.74
2023-05-20T09:40:04.107Z,39.94
2023-05-20T09:43:00.146Z,37.13
2023-05-20T09:45:55.568Z,38.88
2023-05-20T09:48:38.280Z,39.29
2023-05-20T09:51:34.566Z,39.23
2023-05-20T09:54:20.844Z,38.66
2023-05-20T09:57:17.970Z,38.70
2023-05-20T09:59:57.315Z,38.30
2023-05-20T10:02:27.458Z,38.65
2023-05-20T10:06:03.149Z,38.51
2023-05-20T10:12:48.372Z,37.65
2023-05-20T10:15:28.206Z,37.23
2023-05-20T10:18:28.321Z,36.68
2023-05-20T10:21:01.529Z,35.52
2023-05-20T10:24:06.398Z,36.19
2023-05-20T10:26:38.483Z,36.29
2023-05-20T10:29:27.171Z,34.48
2023-05-20T10:32:31.566Z,36.38
2023-05-20T10:35:24.294Z,35.00
2023-05-20T10:38:09.347Z,34.85
2023-05-20T10:40:47.513Z,34.54
2023-05-20T10:43:36.487Z,33.83
2023-05-20T10:46:53.772Z,33.90
2023-05-20T10:49:27.726Z,33.32
2023-05-20T10:52:09.266Z,32.52
2023-05-20T10:54:51.490Z,32.71
2023-05-20T10:57:44.107Z,33.42
2023-05-20T11:00:28.401Z,32.59
2023-05-20T11:04:16.834Z,32.94
2023-05-20T11:07:01.259Z,31.61
2023-05-20T11:09:40.623Z,31.80
2023-05-20T11:12:29.585Z,31.15
2023-05-20T11:15:00.491Z,30.66
2023-05-20T11:17:55.291Z,31.73
2023-05-20T11:20:26.257Z,30.21
2023-05-20T11:22:59.493Z,31.23
2023-05-20T11:25:40.676Z,31.12
2023-05-20T11:32:43.477Z,30.75
2023-05-20T11:35:37.734Z,29.83
2023-05-20T11:38:20.070Z,29.92
2023-05-20T11:40:59.644Z,28.50
2023-05-20T11:43:35.253Z,27.72
2023-05-20T11:46:05.590Z,29.05
2023-05-20T11:48:35.354Z,29.71
2023-05-20T11:51:06.240Z,29.53
2023-05-20T11:53:37.282Z,29.16
2023-05-20T11:56:10.448Z,29.42
2023-05-20T11:58:46.465Z,31.55
2023-05-20T12:03:50.392Z,30.42
2023-05-20T12:06:20.938Z,30.96
2023-05-20T12:08:51.323Z,31.91
2023-05-20T12:11:56.037Z,30.70
2023-05-20T12:14:28.559Z,32.13
2023-05-20T12:16:57.805Z,31.58
2023-05-20T12:19:26.989Z,32.25
2023-05-20T12:21:55.165Z,31.78
2023-05-20T12:24:22.903Z,31.11
2023-05-20T12:27:00.386Z,32.07
2023-05-20T12:29:29.370Z,33.17
2023-05-20T12:31:57.389Z,32.91
2023-05-20T12:34:25.870Z,30.07
2023-05-20T12:36:55.422Z,30.20
2023-05-20T12:39:26.384Z,30.64
2023-05-20T12:41:56.737Z,32.63
2023-05-20T12:44:34.303Z,32.05
2023-05-20T12:47:03.156Z,32.12
2023-05-20T12:49:32.412Z,31.45
2023-05-20T12:52:12.086Z,30.92
2023-05-20T12:54:48.931Z,31.22
2023-05-20T12:57:19.134Z,32.00
2023-05-20T12:59:48.652Z,31.76
2023-05-20T13:02:16.543Z,31.33
2023-05-20T13:04:46.252Z,31.23
2023-05-20T13:07:23.769Z,31.41
2023-05-20T13:09:51.582Z,31.26
2023-05-20T13:12:30.609Z,31.26
2023-05-20T13:15:26.482Z,31.04
2023-05-20T13:18:23.632Z,32.03
2023-05-20T13:21:09.472Z,31.32
2023-05-20T13:24:06.218Z,32.64
2023-05-20T13:27:02.631Z,32.06
2023-05-20T13:32:20.638Z,31.32
2023-05-20T13:35:17.286Z,32.11
2023-05-20T13:38:02.296Z,32.52
2023-05-20T13:41:00.330Z,33.00
2023-05-20T13:43:48.691Z,32.50
2023-05-20T13:46:42.375Z,31.43
2023-05-20T13:49:10.265Z,32.86
2023-05-20T13:52:00.116Z,31.85
2023-05-20T13:55:16.225Z,32.99
2023-05-20T13:58:18.503Z,33.89
2023-05-20T14:01:02.190Z,31.73
2023-05-20T14:03:44.547Z,31.54
2023-05-20T14:06:46.949Z,31.34
2023-05-20T14:09:29.460Z,31.67
2023-05-20T14:12:12.607Z,32.32
2023-05-20T14:14:55.111Z,32.76
2023-05-20T14:17:45.499Z,32.68
2023-05-20T14:20:27.527Z,31.58
2023-05-20T14:23:10.745Z,31.51
2023-05-20T14:26:03.707Z,32.41
2023-05-20T14:28:46.341Z,32.33
2023-05-20T14:31:47.270Z,31.91
2023-05-20T14:34:30.813Z,32.63
2023-05-20T14:37:19.689Z,32.27
2023-05-20T14:40:02.356Z,32.61
2023-05-20T14:42:44.139Z,32.55
2023-05-20T14:45:40.288Z,32.18
2023-05-20T14:48:22.122Z,32.09
2023-05-20T14:51:13.124Z,32.03
2023-05-20T14:53:53.102Z,31.71
2023-05-20T14:56:23.278Z,31.42
2023-05-20T14:58:51.147Z,30.60
2023-05-20T15:01:19.590Z,30.57
2023-05-20T15:03:49.444Z,30.32
2023-05-20T15:06:22.285Z,31.47
2023-05-20T15:08:50.258Z,32.14
2023-05-20T15:11:19.095Z,31.66
2023-05-20T15:13:48.431Z,31.36
2023-05-20T15:16:19.569Z,31.47
2023-05-20T15:18:47.238Z,30.82
2023-05-20T15:21:18.370Z,31.46
2023-05-20T15:23:46.952Z,31.61
2023-05-20T15:26:15.440Z,31.73
2023-05-20T15:28:47.503Z,31.49
2023-05-20T15:31:15.580Z,30.53
2023-05-20T15:33:45.562Z,30.44
2023-05-20T15:36:14.736Z,29.91
2023-05-20T15:38:48.667Z,30.04
2023-05-20T15:41:26.481Z,30.33
2023-05-20T15:44:00.261Z,31.48
2023-05-20T15:46:32.313Z,31.66
2023-05-20T15:49:08.306Z,32.88
2023-05-20T15:51:37.270Z,32.13
2023-05-20T15:54:13.910Z,31.90
2023-05-20T15:56:51.327Z,32.47
2023-05-20T15:59:19.279Z,33.20
2023-05-20T16:01:50.591Z,34.44
2023-05-20T16:04:19.641Z,33.49
2023-05-20T16:06:48.247Z,33.68
2023-05-20T16:09:16.312Z,34.49
2023-05-20T16:11:46.328Z,33.57
2023-05-20T16:14:22.290Z,34.16
2023-05-20T16:16:54.308Z,33.67
2023-05-20T16:19:22.087Z,34.42
2023-05-20T16:21:51.385Z,34.81
2023-05-20T16:24:22.501Z,35.47
2023-05-20T16:26:52.300Z,35.61
2023-05-20T16:29:21.823Z,34.53
2023-05-20T16:31:50.367Z,34.93
2023-05-20T16:34:25.462Z,34.92
2023-05-20T16:36:55.617Z,35.56
2023-05-20T16:39:27.255Z,35.82
2023-05-20T16:41:57.481Z,35.86
2023-05-20T16:44:26.680Z,35.90
2023-05-20T16:46:59.454Z,35.66
2023-05-20T16:49:30.663Z,36.25
2023-05-20T16:51:58.901Z,36.44
2023-05-20T16:54:28.353Z,36.93
2023-05-20T16:56:56.690Z,36.25
2023-05-20T16:59:29.023Z,35.45
2023-05-20T17:01:57.987Z,35.53
2023-05-20T17:04:27.479Z,35.59
2023-05-20T17:07:07.617Z,35.04
2023-05-20T17:09:39.935Z,35.46
2023-05-20T17:12:07.907Z,35.96
2023-05-20T17:14:37.100Z,35.79
2023-05-20T17:17:15.419Z,35.33
2023-05-20T17:19:47.689Z,35.29
2023-05-20T17:22:19.780Z,35.20
2023-05-20T17:24:49.526Z,35.17
2023-05-20T17:27:20.302Z,34.91
2023-05-20T17:29:49.350Z,35.66
2023-05-20T17:32:21.741Z,35.30
2023-05-20T17:34:50.011Z,34.87
2023-05-20T17:37:20.301Z,35.20
2023-05-20T17:39:51.650Z,35.42
2023-05-20T17:42:27.561Z,36.02
2023-05-20T17:44:58.240Z,35.96
2023-05-20T17:47:26.165Z,34.87
2023-05-20T17:49:56.375Z,35.54
2023-05-20T17:52:30.541Z,36.30
2023-05-20T17:55:01.247Z,35.61
2023-05-20T17:57:38.574Z,35.58
2023-05-20T18:00:10.222Z,35.29
2023-05-20T18:02:48.424Z,36.16
2023-05-20T18:05:19.554Z,36.03
2023-05-20T18:07:50.278Z,36.25
2023-05-20T18:12:58.216Z,35.92
2023-05-20T18:15:25.848Z,36.49
2023-05-20T18:17:54.440Z,36.50
2023-05-20T18:20:22.751Z,37.03
2023-05-20T18:22:58.512Z,37.24
2023-05-20T18:25:34.424Z,37.50
2023-05-20T18:30:39.339Z,37.91
2023-05-20T18:33:15.852Z,39.38
2023-05-20T18:35:44.639Z,40.18
2023-05-20T18:38:12.483Z,40.28
2023-05-20T18:40:41.321Z,40.93
2023-05-20T18:43:09.350Z,42.07
2023-05-20T18:45:41.777Z,42.27
2023-05-20T18:48:26.053Z,42.45
2023-05-20T18:51:13.177Z,42.80
2023-05-20T18:53:47.506Z,43.20
2023-05-20T18:56:20.399Z,44.40
2023-05-20T18:58:48.793Z,44.39
2023-05-20T19:01:26.395Z,44.50
2023-05-20T19:04:08.580Z,45.60
2023-05-20T19:06:37.697Z,46.70
2023-05-20T19:09:09.804Z,46.68
2023-05-20T19:11:47.312Z,46.14
2023-05-20T19:14:21.417Z,46.43
2023-05-20T19:16:56.503Z,47.34
2023-05-20T19:19:28.096Z,47.66
2023-05-20T19:22:11.312Z,47.68
2023-05-20T19:27:37.251Z,48.03
2023-05-20T19:30:12.701Z,48.69
2023-05-20T19:32:43.376Z,49.23
2023-05-20T19:35:27.340Z,48.92
2023-05-20T19:38:00.366Z,49.42
2023-05-20T19:40:33.486Z,49.07
2023-05-20T19:43:07.987Z,49.68
2023-05-20T19:45:43.496Z,49.72
2023-05-20T19:48:12.374Z,50.23
2023-05-20T19:50:42.240Z,50.58
2023-05-20T19:53:12.288Z,50.65
2023-05-20T19:55:44.830Z,50.68
2023-05-20T19:58:33.202Z,51.77
2023-05-20T20:01:02.323Z,51.99
2023-05-20T20:03:34.325Z,52.37
2023-05-20T20:06:05.812Z,52.03
2023-05-20T20:08:40.408Z,52.23
2023-05-20T20:11:13.569Z,52.38
2023-05-20T20:13:44.318Z,52.03
2023-05-20T20:18:51.513Z,52.53
2023-05-20T20:21:25.873Z,52.75
2023-05-20T20:23:58.009Z,52.68
2023-05-20T20:26:32.382Z,52.11
2023-05-20T20:29:03.670Z,52.00
2023-05-20T20:31:39.893Z,51.64
2023-05-20T20:34:15.525Z,50.37
2023-05-20T20:36:47.402Z,50.82
2023-05-20T20:39:19.634Z,49.85
2023-05-20T20:41:50.403Z,48.40
2023-05-20T20:44:23.498Z,48.93
2023-05-20T20:46:53.418Z,48.98
2023-05-20T20:49:24.772Z,47.42
2023-05-20T20:51:58.349Z,47.51
2023-05-20T20:54:33.339Z,47.44
2023-05-20T20:57:02.891Z,47.36
2023-05-20T20:59:31.882Z,48.61
2023-05-20T21:02:00.580Z,48.69
2023-05-20T21:04:39.772Z,48.22
2023-05-20T21:07:07.731Z,46.79
2023-05-20T21:09:35.934Z,46.08
2023-05-20T21:12:07.305Z,45.67
2023-05-20T21:14:36.637Z,46.07
2023-05-20T21:17:09.369Z,45.20
2023-05-20T21:19:39.704Z,46.95
2023-05-20T21:22:08.575Z,45.42
2023-05-20T21:24:37.001Z,47.10
2023-05-20T21:27:07.382Z,48.51
2023-05-20T21:29:35.533Z,47.93
2023-05-20T21:32:07.325Z,48.21
2023-05-20T21:34:36.429Z,49.02
2023-05-20T21:37:04.968Z,47.80
2023-05-20T21:39:34.759Z,46.70
2023-05-20T21:42:02.394Z,47.37
2023-05-20T21:44:30.478Z,47.12
2023-05-20T21:46:58.356Z,46.58
2023-05-20T21:49:27.218Z,46.21
2023-05-20T21:51:55.072Z,46.68
2023-05-20T21:54:25.268Z,45.95
2023-05-20T21:56:53.364Z,46.10
2023-05-20T21:59:21.285Z,45.93
2023-05-20T22:01:50.922Z,46.32
2023-05-20T22:04:19.177Z,46.45
2023-05-20T22:06:47.115Z,46.95
2023-05-20T22:09:17.020Z,47.18
2023-05-20T22:11:45.551Z,46.80
2023-05-20T22:14:16.348Z,46.94
2023-05-20T22:16:48.602Z,47.66
2023-05-20T22:19:17.368Z,47.73
2023-05-20T22:21:50.583Z,46.73
2023-05-20T22:24:18.995Z,46.95
2023-05-20T22:26:46.469Z,47.68
2023-05-20T22:29:14.320Z,47.85
2023-05-20T22:31:42.466Z,48.03
2023-05-20T22:34:10.763Z,46.40
2023-05-20T22:36:40.395Z,47.37
2023-05-20T22:39:12.753Z,47.61
2023-05-20T22:41:40.130Z,48.44
2023-05-20T22:44:07.834Z,48.11
2023-05-20T22:46:35.832Z,47.73
2023-05-20T22:49:05.798Z,47.18
2023-05-20T22:51:35.412Z,47.51
2023-05-20T22:54:04.147Z,47.71
2023-05-20T22:56:32.770Z,47.41
2023-05-20T22:59:00.515Z,47.17
2023-05-20T23:01:28.525Z,47.09
2023-05-20T23:03:56.048Z,46.13
2023-05-20T23:06:26.464Z,46.82
2023-05-20T23:08:54.262Z,48.08
2023-05-20T23:11:25.635Z,48.26
2023-05-20T23:13:53.481Z,47.98
2023-05-20T23:16:21.888Z,48.41
2023-05-20T23:18:49.515Z,48.10
2023-05-20T23:21:17.597Z,48.70
2023-05-20T23:23:46.160Z,47.52
2023-05-20T23:26:13.977Z,48.07
2023-05-20T23:28:41.929Z,46.83
2023-05-20T23:31:10.846Z,47.59
2023-05-20T23:33:38.687Z,48.11
2023-05-20T23:36:09.821Z,47.63
2023-05-20T23:38:38.019Z,48.22
2023-05-20T23:41:05.327Z,47.83
2023-05-20T23:43:33.246Z,47.62
2023-05-20T23:46:01.144Z,47.46
2023-05-20T23:48:31.159Z,47.75
2023-05-20T23:51:00.758Z,47.87
2023-05-20T23:53:29.309Z,48.28
2023-05-20T23:55:57.379Z,48.93
2023-05-20T23:58:24.722Z,49.13
